createdAt,value
2017-03-27T00:00:07.534Z,54.40
2017-03-27T00:01:06.733Z,55.10
2017-03-27T00:02:05.937Z,54.40
2017-03-27T00:03:05.150Z,54.60
2017-03-27T00:04:04.390Z,54.80
2017-03-27T00:05:03.960Z,54.60
2017-03-27T00:06:03.119Z,55.40
2017-03-27T00:07:02.260Z,55.50
2017-03-27T00:08:01.411Z,55.50
2017-03-27T00:09:01.113Z,55.60
2017-03-27T00:10:00.279Z,55.20
2017-03-27T00:10:59.742Z,55.00
2017-03-27T00:11:58.877Z,55.00
2017-03-27T00:12:58.126Z,55.00
2017-03-27T00:13:57.336Z,55.00
2017-03-27T00:14:56.610Z,54.00
2017-03-27T00:15:55.789Z,54.00
2017-03-27T00:16:55.333Z,54.10
2017-03-27T00:17:55.322Z,54.00
2017-03-27T00:18:54.502Z,54.90
2017-03-27T00:19:53.690Z,55.00
2017-03-27T00:20:52.879Z,55.00
2017-03-27T00:21:52.072Z,54.90
2017-03-27T00:22:51.636Z,54.80
2017-03-27T00:23:50.995Z,54.60
2017-03-27T00:24:50.154Z,55.20
2017-03-27T00:25:49.315Z,54.80
2017-03-27T00:26:48.490Z,55.60
2017-03-27T00:27:47.637Z,54.80
2017-03-27T00:28:47.122Z,54.80
2017-03-27T00:29:47.046Z,54.80
2017-03-27T00:30:46.234Z,53.90
2017-03-27T00:31:45.405Z,54.70
2017-03-27T00:32:44.571Z,54.80
2017-03-27T00:33:43.723Z,53.60
2017-03-27T00:34:43.180Z,53.70
2017-03-27T00:35:42.457Z,53.60
2017-03-27T00:36:41.609Z,53.40
2017-03-27T00:37:40.751Z,53.70
2017-03-27T00:38:39.935Z,53.80
2017-03-27T00:39:39.105Z,53.70
2017-03-27T00:40:39.516Z,54.70
2017-03-27T00:41:38.691Z,53.70
2017-03-27T00:42:37.888Z,53.70
2017-03-27T00:43:37.798Z,53.50
2017-03-27T00:44:37.088Z,53.60
2017-03-27T00:45:36.365Z,54.60
2017-03-27T00:46:35.863Z,53.70
2017-03-27T00:47:35.017Z,53.80
2017-03-27T00:48:34.195Z,53.70
2017-03-27T00:49:33.421Z,53.60
2017-03-27T00:50:32.551Z,53.60
2017-03-27T00:51:31.761Z,53.80
2017-03-27T00:52:31.377Z,54.70
2017-03-27T00:53:30.550Z,54.70
2017-03-27T00:54:29.750Z,54.70
2017-03-27T00:55:28.913Z,54.70
2017-03-27T00:56:28.155Z,54.80
2017-03-27T00:57:27.331Z,54.80
2017-03-27T00:58:27.363Z,54.80
2017-03-27T00:59:26.512Z,54.60
2017-03-27T01:00:25.840Z,54.70
2017-03-27T01:01:25.006Z,54.60
2017-03-27T01:02:24.937Z,54.60
2017-03-27T01:03:24.066Z,54.60
2017-03-27T01:04:23.495Z,54.70
2017-03-27T01:05:22.665Z,54.80
2017-03-27T01:06:21.819Z,54.80
2017-03-27T01:07:20.936Z,54.70
2017-03-27T01:08:20.154Z,54.50
2017-03-27T01:09:19.324Z,55.00
2017-03-27T01:10:18.926Z,54.40
2017-03-27T01:11:18.218Z,53.40
2017-03-27T01:12:17.385Z,54.20
2017-03-27T01:13:16.521Z,54.20
2017-03-27T01:14:15.841Z,54.30
2017-03-27T01:15:15.016Z,54.30
2017-03-27T01:16:14.463Z,54.10
2017-03-27T01:17:14.404Z,54.20
2017-03-27T01:18:13.701Z,54.20
2017-03-27T01:19:13.016Z,54.30
2017-03-27T01:20:12.162Z,54.40
2017-03-27T01:21:11.305Z,54.60
2017-03-27T01:22:11.529Z,54.80
2017-03-27T01:23:10.672Z,54.80
2017-03-27T01:24:09.839Z,54.80
2017-03-27T01:25:09.018Z,54.80
2017-03-27T01:26:08.158Z,55.00
2017-03-27T01:27:07.286Z,55.00
2017-03-27T01:28:06.855Z,55.10
2017-03-27T01:29:06.003Z,55.10
2017-03-27T01:30:05.216Z,55.20
2017-03-27T01:31:04.511Z,55.40
2017-03-27T01:32:03.737Z,55.60
2017-03-27T01:33:03.631Z,56.20
2017-03-27T01:34:03.216Z,55.70
2017-03-27T01:35:02.343Z,55.60
2017-03-27T01:36:01.473Z,55.60
2017-03-27T01:37:00.611Z,55.70
2017-03-27T01:37:59.769Z,55.70
2017-03-27T01:38:58.924Z,56.10
2017-03-27T01:39:58.365Z,55.80
2017-03-27T01:40:57.519Z,55.70
2017-03-27T01:41:56.784Z,55.70
2017-03-27T01:42:55.962Z,55.80
2017-03-27T01:43:55.099Z,55.70
2017-03-27T01:44:54.282Z,56.00
2017-03-27T01:45:53.827Z,56.20
2017-03-27T01:46:52.990Z,56.20
2017-03-27T01:47:52.126Z,56.20
2017-03-27T01:48:51.267Z,56.00
2017-03-27T01:49:50.408Z,55.80
2017-03-27T01:50:50.408Z,55.80
2017-03-27T01:51:50.731Z,56.00
2017-03-27T01:52:50.617Z,56.10
2017-03-27T01:53:49.760Z,56.00
2017-03-27T01:54:48.943Z,56.00
2017-03-27T01:55:48.079Z,56.10
2017-03-27T01:56:47.236Z,56.00
2017-03-27T01:57:46.852Z,56.00
2017-03-27T01:58:46.029Z,56.10
2017-03-27T01:59:45.204Z,55.90
2017-03-27T02:00:44.355Z,55.70
2017-03-27T02:01:43.599Z,55.70
2017-03-27T02:02:42.758Z,55.70
2017-03-27T02:03:42.316Z,55.80
2017-03-27T02:04:41.483Z,56.00
2017-03-27T02:05:41.342Z,55.60
2017-03-27T02:06:40.552Z,55.70
2017-03-27T02:07:39.733Z,55.90
2017-03-27T02:08:38.917Z,55.80
2017-03-27T02:09:38.602Z,55.80
2017-03-27T02:10:37.747Z,55.70
2017-03-27T02:11:36.918Z,55.80
2017-03-27T02:12:36.097Z,55.80
2017-03-27T02:13:35.270Z,55.80
2017-03-27T02:14:34.558Z,55.80
2017-03-27T02:15:34.102Z,56.00
2017-03-27T02:16:33.259Z,56.10
2017-03-27T02:17:32.406Z,56.10
2017-03-27T02:18:31.636Z,56.20
2017-03-27T02:19:30.883Z,56.10
2017-03-27T02:20:30.147Z,56.60
2017-03-27T02:21:29.731Z,56.00
2017-03-27T02:22:29.928Z,55.90
2017-03-27T02:23:29.807Z,56.00
2017-03-27T02:24:29.096Z,56.10
2017-03-27T02:25:28.246Z,56.00
2017-03-27T02:26:27.439Z,56.20
2017-03-27T02:27:26.964Z,56.30
2017-03-27T02:28:26.770Z,56.20
2017-03-27T02:29:25.883Z,56.10
2017-03-27T02:30:25.772Z,56.10
2017-03-27T02:31:24.954Z,56.10
2017-03-27T02:32:24.149Z,56.20
2017-03-27T02:33:23.685Z,56.10
2017-03-27T02:34:22.788Z,56.00
2017-03-27T02:35:21.901Z,55.90
2017-03-27T02:36:21.110Z,56.70
2017-03-27T02:37:20.294Z,56.00
2017-03-27T02:38:19.467Z,55.80
2017-03-27T02:39:18.965Z,55.80
2017-03-27T02:40:18.115Z,56.10
2017-03-27T02:41:17.273Z,56.10
2017-03-27T02:42:16.420Z,56.20
2017-03-27T02:43:15.575Z,56.10
2017-03-27T02:44:14.711Z,56.20
2017-03-27T02:45:14.211Z,56.30
2017-03-27T02:46:13.342Z,56.30
2017-03-27T02:47:12.588Z,56.80
2017-03-27T02:48:11.736Z,56.10
2017-03-27T02:49:10.876Z,56.00
2017-03-27T02:50:10.047Z,56.00
2017-03-27T02:51:10.354Z,55.90
2017-03-27T02:52:09.640Z,55.90
2017-03-27T02:53:08.800Z,55.90
2017-03-27T02:54:08.103Z,55.90
2017-03-27T02:55:07.224Z,55.80
2017-03-27T02:56:06.402Z,55.80
2017-03-27T02:57:05.985Z,55.80
2017-03-27T02:58:05.153Z,55.70
2017-03-27T02:59:04.313Z,55.70
2017-03-27T03:00:03.453Z,55.60
2017-03-27T03:01:02.611Z,55.60
2017-03-27T03:02:01.790Z,55.70
2017-03-27T03:03:01.428Z,55.80
2017-03-27T03:04:01.313Z,56.60
2017-03-27T03:05:00.423Z,55.80
2017-03-27T03:05:59.682Z,56.10
2017-03-27T03:06:58.843Z,56.00
2017-03-27T03:07:58.029Z,56.10
2017-03-27T03:08:57.476Z,56.20
2017-03-27T03:09:56.668Z,56.40
2017-03-27T03:10:55.861Z,56.40
2017-03-27T03:11:55.015Z,56.30
2017-03-27T03:12:54.246Z,56.10
2017-03-27T03:13:53.421Z,56.30
2017-03-27T03:14:52.922Z,56.40
2017-03-27T03:15:52.123Z,56.50
2017-03-27T03:16:51.287Z,56.60
2017-03-27T03:17:50.453Z,56.60
2017-03-27T03:18:50.559Z,56.70
2017-03-27T03:19:49.682Z,56.50
2017-03-27T03:20:49.252Z,56.50
2017-03-27T03:21:48.399Z,56.30
2017-03-27T03:22:47.682Z,56.20
2017-03-27T03:23:46.829Z,56.10
2017-03-27T03:24:45.998Z,56.20
2017-03-27T03:25:45.138Z,56.20
2017-03-27T03:26:44.560Z,56.30
2017-03-27T03:27:43.699Z,56.40
2017-03-27T03:28:42.850Z,56.40
2017-03-27T03:29:41.977Z,56.60
2017-03-27T03:30:41.161Z,56.70
2017-03-27T03:31:40.335Z,56.60
2017-03-27T03:32:40.019Z,56.40
2017-03-27T03:33:39.188Z,56.40
2017-03-27T03:34:38.534Z,56.60
2017-03-27T03:35:37.667Z,56.80
2017-03-27T03:36:36.802Z,56.50
2017-03-27T03:37:35.955Z,56.50
2017-03-27T03:38:35.494Z,56.50
2017-03-27T03:39:34.665Z,56.40
2017-03-27T03:40:33.881Z,56.40
2017-03-27T03:41:33.026Z,56.30
2017-03-27T03:42:32.247Z,56.40
2017-03-27T03:43:31.391Z,56.30
2017-03-27T03:44:30.886Z,56.20
2017-03-27T03:45:30.030Z,56.20
2017-03-27T03:46:29.195Z,56.20
2017-03-27T03:47:28.389Z,56.20
2017-03-27T03:48:27.546Z,56.10
2017-03-27T03:49:26.706Z,56.10
2017-03-27T03:50:26.233Z,56.00
2017-03-27T03:51:25.369Z,56.00
2017-03-27T03:52:24.584Z,56.10
2017-03-27T03:53:23.728Z,56.20
2017-03-27T03:54:22.925Z,56.10
2017-03-27T03:55:22.121Z,56.10
2017-03-27T03:56:21.732Z,56.10
2017-03-27T03:57:20.994Z,55.90
2017-03-27T03:58:20.146Z,55.90
2017-03-27T03:59:19.275Z,56.00
2017-03-27T04:00:19.189Z,56.60
2017-03-27T04:01:19.093Z,55.90
2017-03-27T04:02:19.419Z,55.80
2017-03-27T04:03:17.787Z,55.70
2017-03-27T04:04:16.938Z,55.80
2017-03-27T04:05:16.092Z,55.90
2017-03-27T04:06:15.239Z,55.70
2017-03-27T04:07:14.427Z,55.50
2017-03-27T04:08:14.030Z,55.30
2017-03-27T04:09:13.186Z,55.30
2017-03-27T04:10:12.324Z,55.40
2017-03-27T04:11:12.263Z,55.10
2017-03-27T04:12:11.402Z,55.10
2017-03-27T04:13:10.550Z,55.10
2017-03-27T04:14:10.006Z,55.10
2017-03-27T04:15:09.200Z,55.10
2017-03-27T04:16:08.367Z,55.00
2017-03-27T04:17:07.532Z,55.10
2017-03-27T04:18:06.742Z,55.80
2017-03-27T04:19:05.935Z,55.10
2017-03-27T04:20:05.612Z,55.10
2017-03-27T04:21:04.756Z,55.10
2017-03-27T04:22:03.947Z,55.10
2017-03-27T04:23:03.002Z,55.10
2017-03-27T04:24:02.115Z,55.10
2017-03-27T04:25:01.271Z,55.00
2017-03-27T04:26:00.935Z,55.00
2017-03-27T04:27:00.171Z,55.00
2017-03-27T04:27:59.352Z,54.90
2017-03-27T04:28:59.729Z,54.90
2017-03-27T04:29:58.908Z,55.00
2017-03-27T04:30:58.797Z,55.00
2017-03-27T04:31:58.370Z,55.20
2017-03-27T04:32:57.528Z,55.20
2017-03-27T04:33:56.688Z,55.10
2017-03-27T04:34:55.867Z,55.20
2017-03-27T04:35:55.030Z,55.00
2017-03-27T04:36:54.413Z,54.90
2017-03-27T04:37:53.895Z,55.10
2017-03-27T04:38:53.048Z,55.00
2017-03-27T04:39:52.316Z,55.00
2017-03-27T04:40:51.489Z,55.10
2017-03-27T04:41:50.681Z,55.00
2017-03-27T04:42:49.889Z,55.00
2017-03-27T04:43:49.366Z,55.30
2017-03-27T04:44:48.525Z,55.20
2017-03-27T04:45:47.650Z,55.30
2017-03-27T04:46:46.895Z,55.20
2017-03-27T04:47:46.052Z,55.40
2017-03-27T04:48:45.155Z,55.40
2017-03-27T04:49:44.697Z,55.40
2017-03-27T04:50:43.868Z,55.30
2017-03-27T04:51:43.018Z,55.30
2017-03-27T04:52:42.292Z,55.40
2017-03-27T04:53:41.620Z,55.40
2017-03-27T04:54:40.799Z,55.40
2017-03-27T04:55:40.322Z,55.40
2017-03-27T04:56:39.485Z,55.40
2017-03-27T04:57:38.642Z,55.40
2017-03-27T04:58:37.853Z,55.40
2017-03-27T04:59:37.053Z,55.30
2017-03-27T05:00:36.169Z,55.30
2017-03-27T05:01:35.742Z,55.30
2017-03-27T05:02:34.918Z,55.20
2017-03-27T05:03:34.095Z,55.10
2017-03-27T05:04:33.291Z,55.00
2017-03-27T05:05:32.478Z,55.00
2017-03-27T05:06:31.653Z,55.20
2017-03-27T05:07:31.262Z,55.20
2017-03-27T05:08:30.435Z,55.40
2017-03-27T05:09:29.559Z,55.40
2017-03-27T05:10:28.733Z,55.30
2017-03-27T05:11:28.030Z,55.30
2017-03-27T05:12:27.195Z,55.30
2017-03-27T05:13:26.837Z,55.20
2017-03-27T05:14:26.015Z,55.30
2017-03-27T05:15:26.044Z,55.20
2017-03-27T05:16:25.974Z,55.10
2017-03-27T05:17:25.384Z,55.20
2017-03-27T05:18:24.548Z,55.20
2017-03-27T05:19:24.152Z,55.30
2017-03-27T05:20:23.327Z,55.30
2017-03-27T05:21:22.559Z,55.20
2017-03-27T05:22:21.802Z,55.30
2017-03-27T05:23:20.942Z,55.30
2017-03-27T05:24:20.868Z,55.30
2017-03-27T05:25:20.380Z,55.30
2017-03-27T05:26:19.559Z,55.20
2017-03-27T05:27:18.713Z,55.40
2017-03-27T05:28:17.892Z,55.40
2017-03-27T05:29:17.038Z,55.50
2017-03-27T05:30:16.295Z,55.50
2017-03-27T05:31:15.777Z,55.60
2017-03-27T05:32:15.030Z,55.60
2017-03-27T05:33:14.195Z,55.70
2017-03-27T05:34:13.361Z,55.90
2017-03-27T05:35:12.808Z,56.20
2017-03-27T05:36:11.968Z,56.40
2017-03-27T05:37:11.514Z,56.30
2017-03-27T05:38:11.451Z,56.40
2017-03-27T05:39:10.598Z,56.40
2017-03-27T05:40:09.828Z,56.40
2017-03-27T05:41:09.036Z,56.40
2017-03-27T05:42:08.158Z,56.50
2017-03-27T05:43:07.798Z,56.40
2017-03-27T05:44:06.965Z,56.50
2017-03-27T05:45:06.169Z,57.10
2017-03-27T05:46:05.320Z,56.50
2017-03-27T05:47:05.266Z,56.50
2017-03-27T05:48:04.429Z,56.60
2017-03-27T05:49:04.016Z,56.60
2017-03-27T05:50:03.354Z,57.20
2017-03-27T05:51:02.505Z,56.50
2017-03-27T05:52:01.762Z,56.60
2017-03-27T05:53:00.993Z,56.80
2017-03-27T05:54:00.189Z,56.90
2017-03-27T05:54:59.761Z,56.90
2017-03-27T05:55:58.924Z,56.70
2017-03-27T05:56:58.863Z,56.70
2017-03-27T05:57:58.016Z,56.60
2017-03-27T05:58:57.930Z,57.30
2017-03-27T05:59:57.092Z,56.70
2017-03-27T06:00:56.633Z,56.60
2017-03-27T06:01:55.815Z,56.70
2017-03-27T06:02:55.030Z,56.80
2017-03-27T06:03:54.286Z,56.90
2017-03-27T06:04:53.460Z,57.00
2017-03-27T06:05:52.756Z,57.10
2017-03-27T06:06:53.128Z,57.40
2017-03-27T06:07:52.281Z,57.40
2017-03-27T06:08:52.444Z,57.10
2017-03-27T06:09:51.643Z,57.20
2017-03-27T06:10:50.811Z,57.20
2017-03-27T06:11:50.003Z,57.00
2017-03-27T06:12:49.519Z,57.00
2017-03-27T06:13:48.720Z,57.00
2017-03-27T06:14:47.898Z,56.90
2017-03-27T06:15:47.795Z,57.10
2017-03-27T06:16:46.964Z,57.00
2017-03-27T06:17:46.175Z,57.10
2017-03-27T06:18:45.686Z,57.00
2017-03-27T06:19:44.897Z,57.20
2017-03-27T06:20:44.121Z,57.20
2017-03-27T06:21:43.323Z,57.70
2017-03-27T06:22:42.490Z,57.70
2017-03-27T06:23:41.670Z,58.10
2017-03-27T06:24:41.196Z,58.10
2017-03-27T06:25:40.441Z,58.10
2017-03-27T06:26:39.732Z,58.10
2017-03-27T06:27:38.874Z,57.90
2017-03-27T06:28:38.111Z,58.40
2017-03-27T06:29:37.263Z,57.70
2017-03-27T06:30:36.834Z,57.90
2017-03-27T06:31:36.002Z,58.00
2017-03-27T06:32:35.185Z,58.00
2017-03-27T06:33:34.343Z,58.10
2017-03-27T06:34:33.542Z,58.10
2017-03-27T06:35:32.741Z,58.10
2017-03-27T06:36:32.276Z,58.10
2017-03-27T06:37:31.441Z,58.10
2017-03-27T06:38:30.685Z,58.20
2017-03-27T06:39:30.072Z,58.10
2017-03-27T06:40:29.260Z,58.10
2017-03-27T06:41:29.193Z,58.10
2017-03-27T06:42:29.170Z,58.10
2017-03-27T06:43:28.352Z,58.10
2017-03-27T06:44:27.544Z,58.60
2017-03-27T06:45:26.721Z,58.60
2017-03-27T06:46:25.983Z,58.60
2017-03-27T06:47:25.916Z,58.10
2017-03-27T06:48:25.509Z,58.10
2017-03-27T06:49:24.722Z,58.10
2017-03-27T06:50:23.928Z,58.20
2017-03-27T06:51:23.103Z,58.30
2017-03-27T06:52:22.328Z,58.30
2017-03-27T06:53:21.569Z,58.70
2017-03-27T06:54:21.111Z,58.10
2017-03-27T06:55:20.312Z,58.00
2017-03-27T06:56:19.522Z,58.50
2017-03-27T06:57:18.748Z,58.00
2017-03-27T06:58:17.875Z,57.60
2017-03-27T06:59:17.034Z,57.50
2017-03-27T07:00:16.673Z,57.60
2017-03-27T07:01:15.823Z,57.30
2017-03-27T07:02:15.083Z,57.90
2017-03-27T07:03:14.388Z,57.30
2017-03-27T07:04:13.564Z,57.10
2017-03-27T07:05:12.862Z,56.80
2017-03-27T07:06:12.426Z,56.30
2017-03-27T07:07:11.571Z,56.20
2017-03-27T07:08:10.737Z,56.50
2017-03-27T07:09:09.906Z,56.50
2017-03-27T07:10:09.343Z,56.50
2017-03-27T07:11:08.526Z,56.40
2017-03-27T07:12:08.188Z,56.30
2017-03-27T07:13:07.380Z,56.10
2017-03-27T07:14:06.567Z,56.40
2017-03-27T07:15:05.768Z,56.70
2017-03-27T07:16:05.023Z,56.50
2017-03-27T07:17:04.219Z,54.70
2017-03-27T07:18:03.789Z,55.40
2017-03-27T07:19:03.112Z,54.60
2017-03-27T07:20:02.316Z,53.60
2017-03-27T07:21:01.540Z,53.80
2017-03-27T07:22:00.730Z,53.60
2017-03-27T07:22:59.916Z,53.20
2017-03-27T07:23:59.707Z,52.00
2017-03-27T07:24:59.748Z,52.30
2017-03-27T07:25:59.053Z,52.80
2017-03-27T07:26:58.302Z,52.30
2017-03-27T07:27:57.480Z,52.70
2017-03-27T07:28:56.668Z,51.60
2017-03-27T07:29:56.492Z,51.50
2017-03-27T07:30:55.656Z,50.90
2017-03-27T07:31:54.855Z,50.40
2017-03-27T07:32:54.181Z,49.90
2017-03-27T07:33:53.385Z,51.10
2017-03-27T07:34:52.627Z,50.00
2017-03-27T07:35:52.336Z,51.30
2017-03-27T07:36:51.565Z,49.80
2017-03-27T07:37:50.748Z,49.40
2017-03-27T07:38:49.961Z,48.70
2017-03-27T07:39:49.134Z,48.70
2017-03-27T07:40:48.518Z,48.30
2017-03-27T07:41:47.708Z,48.20
2017-03-27T07:42:46.882Z,48.10
2017-03-27T07:43:46.161Z,47.70
2017-03-27T07:44:45.430Z,48.40
2017-03-27T07:45:44.744Z,47.10
2017-03-27T07:46:44.387Z,46.00
2017-03-27T07:47:44.611Z,46.60
2017-03-27T07:48:43.786Z,47.30
2017-03-27T07:49:42.951Z,46.90
2017-03-27T07:50:42.236Z,46.70
2017-03-27T07:51:41.420Z,46.20
2017-03-27T07:52:40.644Z,46.60
2017-03-27T07:53:39.971Z,46.40
2017-03-27T07:54:39.148Z,46.60
2017-03-27T07:55:38.295Z,45.70
2017-03-27T07:56:37.501Z,45.80
2017-03-27T07:57:38.002Z,45.20
2017-03-27T07:58:38.125Z,45.80
2017-03-27T07:59:37.355Z,45.60
2017-03-27T08:00:36.629Z,46.40
2017-03-27T08:01:35.927Z,46.00
2017-03-27T08:02:35.840Z,45.30
2017-03-27T08:03:35.408Z,45.90
2017-03-27T08:04:34.812Z,45.70
2017-03-27T08:05:34.635Z,45.60
2017-03-27T08:06:33.779Z,45.50
2017-03-27T08:07:32.961Z,44.00
2017-03-27T08:08:32.140Z,44.50
2017-03-27T08:09:31.719Z,44.50
2017-03-27T08:10:30.893Z,45.20
2017-03-27T08:11:30.068Z,44.80
2017-03-27T08:12:29.259Z,45.00
2017-03-27T08:13:28.465Z,45.20
2017-03-27T08:14:27.712Z,45.00
2017-03-27T08:15:27.998Z,44.90
2017-03-27T08:16:27.182Z,44.30
2017-03-27T08:17:27.067Z,44.00
2017-03-27T08:18:26.218Z,43.10
2017-03-27T08:19:25.421Z,43.50
2017-03-27T08:20:24.726Z,43.60
2017-03-27T08:21:24.248Z,42.70
2017-03-27T08:22:23.453Z,43.60
2017-03-27T08:23:23.369Z,42.30
2017-03-27T08:24:22.707Z,42.60
2017-03-27T08:25:22.686Z,42.50
2017-03-27T08:26:21.922Z,41.20
2017-03-27T08:27:21.473Z,41.40
2017-03-27T08:28:20.651Z,42.60
2017-03-27T08:29:19.844Z,42.30
2017-03-27T08:30:19.007Z,42.20
2017-03-27T08:31:18.275Z,42.40
2017-03-27T08:32:17.491Z,40.30
2017-03-27T08:33:17.150Z,40.90
2017-03-27T08:34:16.358Z,41.20
2017-03-27T08:35:15.569Z,40.00
2017-03-27T08:36:14.748Z,40.10
2017-03-27T08:37:13.968Z,40.20
2017-03-27T08:38:13.269Z,40.50
2017-03-27T08:39:12.892Z,38.90
2017-03-27T08:40:12.093Z,38.20
2017-03-27T08:41:11.268Z,38.70
2017-03-27T08:42:10.448Z,39.10
2017-03-27T08:43:10.415Z,38.40
2017-03-27T08:44:09.586Z,37.40
2017-03-27T08:45:09.160Z,37.40
2017-03-27T08:46:08.348Z,36.10
2017-03-27T08:47:07.521Z,35.20
2017-03-27T08:48:06.739Z,36.30
2017-03-27T08:49:06.471Z,35.80
2017-03-27T08:50:05.651Z,36.30
2017-03-27T08:51:05.283Z,35.80
2017-03-27T08:52:04.518Z,36.50
2017-03-27T08:53:03.754Z,35.70
2017-03-27T08:54:02.968Z,34.60
2017-03-27T08:55:02.136Z,35.00
2017-03-27T08:56:01.355Z,35.30
2017-03-27T08:57:00.871Z,35.60
2017-03-27T08:58:00.048Z,34.60
2017-03-27T08:58:59.212Z,34.10
2017-03-27T08:59:58.497Z,34.80
2017-03-27T09:00:57.704Z,35.30
2017-03-27T09:01:56.865Z,35.40
2017-03-27T09:02:56.271Z,34.70
2017-03-27T09:03:55.533Z,34.40
2017-03-27T09:04:55.467Z,33.70
2017-03-27T09:05:54.639Z,33.60
2017-03-27T09:06:53.849Z,32.90
2017-03-27T09:07:52.963Z,32.50
2017-03-27T09:08:52.492Z,31.80
2017-03-27T09:09:51.734Z,32.70
2017-03-27T09:10:50.951Z,32.40
2017-03-27T09:11:50.156Z,32.80
2017-03-27T09:12:49.386Z,32.40
2017-03-27T09:13:48.534Z,33.60
2017-03-27T09:14:48.046Z,32.10
2017-03-27T09:15:47.234Z,31.60
2017-03-27T09:16:46.436Z,32.50
2017-03-27T09:17:45.602Z,32.30
2017-03-27T09:18:44.868Z,32.20
2017-03-27T09:19:44.810Z,32.80
2017-03-27T09:20:44.413Z,31.00
2017-03-27T09:21:43.571Z,31.60
2017-03-27T09:22:42.789Z,31.20
2017-03-27T09:23:42.706Z,30.40
2017-03-27T09:24:41.868Z,31.10
2017-03-27T09:25:41.140Z,31.10
2017-03-27T09:26:40.758Z,30.90
2017-03-27T09:27:39.905Z,30.60
2017-03-27T09:28:39.195Z,31.10
2017-03-27T09:29:38.516Z,30.00
2017-03-27T09:30:38.219Z,30.40
2017-03-27T09:31:37.714Z,30.70
2017-03-27T09:32:37.625Z,29.60
2017-03-27T09:33:37.078Z,28.00
2017-03-27T09:34:36.760Z,27.80
2017-03-27T09:35:36.226Z,29.60
2017-03-27T09:36:35.863Z,27.90
2017-03-27T09:37:36.061Z,29.30
2017-03-27T09:38:35.825Z,28.60
2017-03-27T09:39:35.308Z,28.40
2017-03-27T09:40:35.564Z,29.60
2017-03-27T09:41:35.148Z,27.80
2017-03-27T09:42:35.305Z,28.30
2017-03-27T09:43:35.549Z,28.30
2017-03-27T09:44:39.150Z,28.20
2017-03-27T09:45:38.698Z,28.30
2017-03-27T09:46:38.227Z,28.80
2017-03-27T09:47:41.286Z,27.60
2017-03-27T09:48:41.032Z,27.30
2017-03-27T09:49:40.541Z,27.80
2017-03-27T09:50:40.066Z,27.90
2017-03-27T09:51:40.019Z,28.20
2017-03-27T09:52:39.520Z,28.30
2017-03-27T09:53:39.054Z,27.80
2017-03-27T09:54:39.247Z,28.50
2017-03-27T09:55:39.581Z,27.20
2017-03-27T09:56:38.948Z,27.10
2017-03-27T09:57:38.317Z,27.80
2017-03-27T09:58:37.614Z,27.50
2017-03-27T09:59:37.384Z,27.60
2017-03-27T10:00:36.729Z,26.80
2017-03-27T10:01:36.100Z,27.30
2017-03-27T10:02:35.452Z,26.70
2017-03-27T10:03:34.764Z,26.70
2017-03-27T10:04:34.186Z,26.90
2017-03-27T10:05:33.943Z,27.10
2017-03-27T10:06:33.277Z,26.80
2017-03-27T10:07:32.690Z,26.60
2017-03-27T10:08:32.753Z,26.80
2017-03-27T10:09:32.171Z,26.50
2017-03-27T10:10:32.404Z,26.30
2017-03-27T10:11:32.048Z,26.70
2017-03-27T10:12:31.393Z,26.70
2017-03-27T10:13:30.672Z,26.00
2017-03-27T10:14:29.875Z,26.40
2017-03-27T10:15:29.134Z,26.50
2017-03-27T10:16:28.435Z,26.40
2017-03-27T10:17:28.186Z,26.70
2017-03-27T10:18:27.551Z,26.10
2017-03-27T10:19:26.836Z,26.30
2017-03-27T10:20:26.037Z,27.40
2017-03-27T10:21:25.303Z,26.30
2017-03-27T10:22:24.721Z,25.30
2017-03-27T10:23:24.456Z,26.00
2017-03-27T10:24:23.716Z,27.00
2017-03-27T10:25:23.704Z,27.00
2017-03-27T10:26:22.927Z,27.60
2017-03-27T10:27:22.131Z,26.30
2017-03-27T10:28:21.398Z,25.20
2017-03-27T10:29:21.394Z,25.10
2017-03-27T10:30:21.298Z,25.80
2017-03-27T10:31:20.650Z,25.40
2017-03-27T10:32:20.756Z,25.90
2017-03-27T10:33:20.076Z,25.50
2017-03-27T10:34:19.436Z,25.30
2017-03-27T10:35:19.426Z,25.30
2017-03-27T10:36:18.701Z,25.30
2017-03-27T10:37:18.050Z,26.00
2017-03-27T10:38:17.507Z,25.90
2017-03-27T10:39:16.803Z,25.10
2017-03-27T10:40:16.095Z,24.80
2017-03-27T10:41:15.719Z,24.20
2017-03-27T10:42:15.029Z,23.80
2017-03-27T10:43:14.397Z,24.00
2017-03-27T10:44:13.728Z,24.00
2017-03-27T10:45:12.981Z,24.30
2017-03-27T10:46:12.290Z,24.90
2017-03-27T10:47:11.872Z,25.00
2017-03-27T10:48:11.067Z,24.40
2017-03-27T10:49:10.310Z,24.40
2017-03-27T10:50:09.882Z,26.00
2017-03-27T10:51:09.108Z,24.70
2017-03-27T10:52:09.344Z,25.30
2017-03-27T10:53:08.978Z,24.20
2017-03-27T10:54:08.272Z,23.70
2017-03-27T10:55:07.639Z,22.90
2017-03-27T10:56:06.953Z,23.10
2017-03-27T10:57:06.310Z,22.70
2017-03-27T10:58:05.721Z,22.30
2017-03-27T10:59:05.304Z,22.60
2017-03-27T11:00:04.555Z,22.10
2017-03-27T11:01:04.564Z,22.10
2017-03-27T11:02:04.767Z,21.50
2017-03-27T11:03:04.084Z,21.80
2017-03-27T11:04:03.410Z,21.10
2017-03-27T11:05:02.970Z,20.80
2017-03-27T11:06:02.317Z,21.00
2017-03-27T11:07:01.891Z,20.70
2017-03-27T11:08:01.122Z,19.90
2017-03-27T11:09:02.540Z,20.40
2017-03-27T11:10:01.878Z,20.20
2017-03-27T11:11:02.310Z,20.10
2017-03-27T11:12:01.595Z,20.20
2017-03-27T11:13:01.284Z,19.70
2017-03-27T11:14:00.717Z,19.50
2017-03-27T11:15:08.181Z,19.20
2017-03-27T11:16:26.653Z,18.70
2017-03-27T11:17:37.845Z,18.50
2017-03-27T11:18:45.048Z,18.90
2017-03-27T11:19:57.278Z,18.80
2017-03-27T11:21:08.620Z,18.30
2017-03-27T11:23:49.765Z,18.40
2017-03-27T11:24:58.498Z,19.10
2017-03-27T11:26:06.544Z,18.90
2017-03-27T11:28:47.896Z,18.80
2017-03-27T11:29:57.210Z,18.00
2017-03-27T11:35:19.522Z,17.10
2017-03-27T11:39:23.500Z,16.70
2017-03-27T11:41:56.923Z,17.60
2017-03-27T11:44:38.471Z,18.30
2017-03-27T11:47:11.702Z,19.90
2017-03-27T11:59:28.391Z,21.70
2017-03-27T12:00:35.476Z,22.50
2017-03-27T12:01:43.127Z,23.10
2017-03-27T12:02:52.064Z,22.90
2017-03-27T12:04:00.226Z,22.10
2017-03-27T12:05:07.983Z,22.70
2017-03-27T12:07:39.913Z,23.70
2017-03-27T12:08:47.900Z,23.00
2017-03-27T12:10:00.158Z,22.90
2017-03-27T12:11:10.297Z,22.60
2017-03-27T12:12:17.041Z,23.90
2017-03-27T12:13:19.417Z,25.00
2017-03-27T12:14:31.309Z,25.20
2017-03-27T12:15:30.791Z,25.40
2017-03-27T12:16:30.778Z,25.10
2017-03-27T12:17:30.201Z,24.70
2017-03-27T12:18:29.671Z,24.90
2017-03-27T12:19:29.215Z,25.50
2017-03-27T12:20:28.683Z,24.00
2017-03-27T12:21:28.242Z,24.30
2017-03-27T12:22:28.018Z,25.00
2017-03-27T12:23:27.503Z,25.70
2017-03-27T12:24:27.766Z,25.40
2017-03-27T12:25:27.183Z,25.30
2017-03-27T12:26:26.711Z,25.50
2017-03-27T12:27:26.221Z,25.60
2017-03-27T12:28:26.066Z,25.80
2017-03-27T12:29:26.191Z,25.80
2017-03-27T12:30:25.576Z,25.50
2017-03-27T12:31:25.039Z,26.20
2017-03-27T12:32:24.422Z,25.90
2017-03-27T12:33:36.922Z,25.90
2017-03-27T12:34:36.407Z,25.40
2017-03-27T12:35:35.841Z,25.80
2017-03-27T12:36:41.716Z,26.10
2017-03-27T12:37:41.141Z,25.90
2017-03-27T12:38:40.894Z,25.90
2017-03-27T12:39:41.397Z,25.90
2017-03-27T12:40:40.917Z,25.90
2017-03-27T12:41:41.842Z,25.90
2017-03-27T12:42:42.202Z,25.50
2017-03-27T12:43:41.920Z,25.60
2017-03-27T12:44:41.352Z,25.90
2017-03-27T12:45:40.865Z,25.70
2017-03-27T12:46:40.533Z,26.50
2017-03-27T12:47:39.880Z,25.50
2017-03-27T12:48:39.562Z,25.40
2017-03-27T12:49:39.335Z,25.50
2017-03-27T12:50:40.265Z,25.40
2017-03-27T12:51:39.720Z,24.80
2017-03-27T12:52:39.149Z,24.90
2017-03-27T12:53:38.731Z,25.20
2017-03-27T12:54:38.198Z,24.60
2017-03-27T12:55:38.124Z,24.90
2017-03-27T12:56:37.876Z,24.90
2017-03-27T12:57:38.301Z,25.30
2017-03-27T12:58:38.470Z,25.00
2017-03-27T12:59:38.004Z,25.50
2017-03-27T13:00:38.774Z,25.30
2017-03-27T13:01:38.223Z,24.50
2017-03-27T13:02:37.702Z,25.00
2017-03-27T13:03:38.161Z,25.50
2017-03-27T13:04:38.903Z,24.80
2017-03-27T13:05:38.836Z,25.30
2017-03-27T13:06:38.278Z,25.10
2017-03-27T13:07:37.658Z,24.40
2017-03-27T13:08:37.174Z,23.90
2017-03-27T13:09:36.605Z,24.90
2017-03-27T13:10:36.057Z,25.00
2017-03-27T13:11:36.149Z,25.00
2017-03-27T13:12:36.405Z,24.50
2017-03-27T13:13:35.753Z,24.50
2017-03-27T13:14:35.153Z,24.40
2017-03-27T13:15:34.712Z,24.30
2017-03-27T13:16:34.518Z,23.90